Time;durP1;ratioP1;P1;durP2;ratioP2;P2;SDS_P1;SDS_P2;PMS_P1;PMS_P2;Temp;Humidity;BMP_temperature;BMP_pressure;BME280_temperature;BME280_humidity;BME280_pressure;Samples;Min_cycle;Max_cycle;Signal;HPM_P1;HPM_P2
2022/01/08 00:01:24;;;;;;;13.90;7.03;;;4.70;99.90;;;;;;4993907;28;20744;-87
2022/01/08 00:03:51;;;;;;;29.20;19.63;;;4.80;99.90;;;;;;4978165;28;20174;-86
2022/01/08 00:06:17;;;;;;;17.30;8.97;;;4.80;99.90;;;;;;4977198;28;20556;-87
2022/01/08 00:08:43;;;;;;;16.27;6.70;;;4.80;99.90;;;;;;4978255;28;20212;-87
2022/01/08 00:11:13;;;;;;;16.50;5.30;;;4.80;99.90;;;;;;4982227;28;20170;-87
2022/01/08 00:13:41;;;;;;;8.83;4.10;;;4.80;99.90;;;;;;4977979;28;20174;-87
2022/01/08 00:16:07;;;;;;;13.03;4.03;;;4.90;99.90;;;;;;4979156;28;20208;-87
2022/01/08 00:18:32;;;;;;;8.67;3.80;;;4.90;99.90;;;;;;4979007;28;20170;-87
2022/01/08 00:20:58;;;;;;;6.50;2.73;;;4.70;99.90;;;;;;4977586;28;20178;-87
2022/01/08 00:23:24;;;;;;;9.80;3.47;;;4.70;99.90;;;;;;4978947;28;20277;-87
2022/01/08 00:25:49;;;;;;;8.10;3.40;;;4.70;99.90;;;;;;4978939;28;20200;-87
2022/01/08 00:28:15;;;;;;;8.53;3.70;;;4.60;99.90;;;;;;4978681;28;20210;-87
2022/01/08 00:30:41;;;;;;;11.27;2.67;;;4.70;99.90;;;;;;4979370;28;20254;-87
2022/01/08 00:33:06;;;;;;;6.70;2.70;;;4.70;99.90;;;;;;4978819;28;20173;-87
2022/01/08 00:35:33;;;;;;;7.03;2.30;;;4.70;99.90;;;;;;4978685;28;20174;-87
2022/01/08 00:37:59;;;;;;;7.80;2.33;;;4.70;99.90;;;;;;4978582;28;20178;-87
2022/01/08 00:40:25;;;;;;;10.33;3.40;;;4.70;99.90;;;;;;4978635;28;20201;-87
2022/01/08 00:42:50;;;;;;;7.17;2.43;;;4.70;99.90;;;;;;4978751;28;20166;-87
2022/01/08 00:45:16;;;;;;;9.60;2.43;;;4.70;99.90;;;;;;4977934;28;20514;-86
2022/01/08 00:47:42;;;;;;;7.23;2.47;;;4.80;99.90;;;;;;4978774;28;20169;-87
2022/01/08 00:50:10;;;;;;;7.87;2.30;;;4.80;99.90;;;;;;4978404;28;20220;-86
2022/01/08 00:52:35;;;;;;;6.67;3.33;;;4.80;99.90;;;;;;4978466;28;20645;-86
2022/01/08 00:55:01;;;;;;;7.80;2.50;;;4.80;99.90;;;;;;4978089;28;20189;-88
2022/01/08 00:57:27;;;;;;;6.83;2.03;;;4.70;99.90;;;;;;4978051;28;20182;-88
2022/01/08 00:59:52;;;;;;;5.67;1.80;;;4.70;99.90;;;;;;4978029;28;20189;-87
2022/01/08 01:02:18;;;;;;;7.23;1.87;;;4.60;99.90;;;;;;4978217;28;20190;-87
2022/01/08 01:04:43;;;;;;;6.37;1.90;;;4.50;99.90;;;;;;4978387;28;20173;-87
2022/01/08 01:07:09;;;;;;;6.47;2.23;;;4.50;99.90;;;;;;4978160;28;20172;-88
2022/01/08 01:09:34;;;;;;;7.40;2.40;;;4.60;99.90;;;;;;4977432;28;20307;-86
2022/01/08 01:12:00;;;;;;;13.73;7.20;;;4.60;99.90;;;;;;4977683;28;20228;-88
2022/01/08 01:14:26;;;;;;;6.77;4.37;;;4.50;99.90;;;;;;4977739;28;20736;-88
2022/01/08 01:16:52;;;;;;;12.43;6.53;;;4.40;99.90;;;;;;4978139;28;20193;-88
2022/01/08 01:19:18;;;;;;;10.97;2.97;;;4.50;99.90;;;;;;4977900;28;20177;-86
2022/01/08 01:21:44;;;;;;;11.03;4.27;;;4.60;99.90;;;;;;4977905;28;20549;-88
2022/01/08 01:24:16;;;;;;;10.80;4.33;;;4.50;99.90;;;;;;4977952;28;20265;-87
2022/01/08 01:26:55;;;;;;;7.60;4.40;;;4.50;99.90;;;;;;4977793;28;20172;-87
2022/01/08 01:29:49;;;;;;;11.67;4.83;;;4.50;99.90;;;;;;4977695;28;20213;-87
2022/01/08 01:48:21;;;;;;;17.47;10.40;;;4.90;99.90;;;;;;4994689;28;20320;-86
2022/01/08 01:50:47;;;;;;;17.40;12.13;;;5.00;99.90;;;;;;4977296;28;20264;-88
2022/01/08 01:53:13;;;;;;;6.87;4.37;;;5.10;99.90;;;;;;4977215;28;20174;-88
2022/01/08 01:55:42;;;;;;;15.43;11.03;;;5.10;99.90;;;;;;4976927;28;20245;-88
2022/01/08 01:58:10;;;;;;;11.30;6.10;;;5.00;99.90;;;;;;4977324;28;20574;-88
2022/01/08 02:00:36;;;;;;;19.93;9.73;;;4.90;99.90;;;;;;4976925;28;20193;-88
2022/01/08 02:03:02;;;;;;;13.73;8.40;;;4.90;99.90;;;;;;4977234;28;20216;-88
2022/01/08 02:05:28;;;;;;;10.90;5.70;;;4.90;99.90;;;;;;4977145;28;20189;-88
2022/01/08 02:07:55;;;;;;;13.33;6.30;;;4.90;99.90;;;;;;4977000;28;20180;-87
2022/01/08 02:10:24;;;;;;;18.33;9.67;;;4.80;99.90;;;;;;4976971;28;20324;-88
2022/01/08 02:12:50;;;;;;;9.77;6.50;;;4.80;99.90;;;;;;4977105;28;20197;-87
2022/01/08 02:15:17;;;;;;;13.10;7.40;;;4.80;99.90;;;;;;4976959;28;20256;-87
2022/01/08 02:17:43;;;;;;;10.60;6.00;;;4.70;99.90;;;;;;4977275;28;20172;-87
2022/01/08 02:20:10;;;;;;;13.47;7.27;;;4.60;99.90;;;;;;4977293;28;20268;-88
2022/01/08 02:22:35;;;;;;;11.93;7.27;;;4.50;99.90;;;;;;4976495;28;20181;-88
2022/01/08 02:25:02;;;;;;;14.07;8.40;;;4.50;99.90;;;;;;4976754;28;20170;-88
2022/01/08 02:27:27;;;;;;;16.10;7.73;;;4.60;99.90;;;;;;4976813;28;20165;-87
2022/01/08 02:29:53;;;;;;;14.10;8.13;;;4.50;99.90;;;;;;4976873;28;20670;-88
2022/01/08 02:32:26;;;;;;;17.57;8.10;;;4.50;99.90;;;;;;4976681;28;20170;-87
2022/01/08 02:34:51;;;;;;;20.87;8.10;;;4.40;99.90;;;;;;4976566;28;20231;-87
2022/01/08 02:37:22;;;;;;;13.97;6.53;;;4.30;99.90;;;;;;4976492;28;20174;-87
2022/01/08 02:39:49;;;;;;;12.43;6.30;;;4.40;99.90;;;;;;4976829;28;20174;-88
2022/01/08 02:42:19;;;;;;;14.43;6.53;;;4.50;99.90;;;;;;4976716;28;20184;-87
2022/01/08 02:44:46;;;;;;;8.97;6.40;;;4.50;99.90;;;;;;4975981;28;20173;-87
2022/01/08 02:47:16;;;;;;;15.87;7.80;;;4.60;99.90;;;;;;4976423;28;20173;-87
2022/01/08 02:49:43;;;;;;;14.03;6.50;;;4.60;99.90;;;;;;4971335;28;20217;-87
2022/01/08 02:52:09;;;;;;;16.50;9.73;;;4.60;99.90;;;;;;4956995;28;20187;-87
2022/01/08 02:54:35;;;;;;;13.17;8.00;;;4.60;99.90;;;;;;4957150;28;20632;-88
2022/01/08 02:57:01;;;;;;;14.87;8.13;;;4.50;99.90;;;;;;4957081;28;20208;-88
2022/01/08 02:59:27;;;;;;;14.40;7.27;;;4.50;99.90;;;;;;4957326;28;20587;-88
2022/01/08 03:01:53;;;;;;;14.33;8.03;;;4.40;99.90;;;;;;4957246;28;20180;-88
2022/01/08 03:04:20;;;;;;;13.47;8.10;;;4.50;99.90;;;;;;4957526;28;20167;-88
2022/01/08 03:06:46;;;;;;;17.67;8.40;;;4.50;99.90;;;;;;4956791;28;20205;-87
2022/01/08 03:09:11;;;;;;;15.17;8.40;;;4.40;99.90;;;;;;4957016;28;20239;-87
2022/01/08 03:11:38;;;;;;;15.90;8.20;;;4.30;99.90;;;;;;4957269;28;20221;-87
2022/01/08 03:14:05;;;;;;;14.67;7.87;;;4.30;99.90;;;;;;4956920;28;20205;-87
2022/01/08 03:16:31;;;;;;;16.57;8.03;;;4.30;99.90;;;;;;4957481;28;20261;-87
2022/01/08 03:18:56;;;;;;;19.43;9.60;;;4.30;99.90;;;;;;4957217;28;20262;-87
2022/01/08 03:21:22;;;;;;;16.07;8.97;;;4.30;99.90;;;;;;4956791;28;20217;-87
2022/01/08 03:23:59;;;;;;;21.67;14.17;;;4.30;99.90;;;;;;4956828;28;20242;-88
2022/01/08 03:26:27;;;;;;;14.50;10.10;;;4.40;99.90;;;;;;4957046;28;20174;-88
2022/01/08 03:28:54;;;;;;;19.30;9.97;;;4.40;99.90;;;;;;4956697;28;20244;-87
2022/01/08 03:31:21;;;;;;;16.57;9.70;;;4.40;99.90;;;;;;4956984;28;20274;-87
2022/01/08 03:33:47;;;;;;;19.37;10.10;;;4.40;99.90;;;;;;4956831;28;20166;-86
2022/01/08 03:36:14;;;;;;;13.37;9.30;;;4.30;99.90;;;;;;4956747;28;20167;-87
2022/01/08 03:38:40;;;;;;;16.73;9.17;;;4.30;99.90;;;;;;4956869;28;20159;-87
2022/01/08 03:41:06;;;;;;;15.90;9.30;;;4.30;99.90;;;;;;4956984;28;20623;-87
2022/01/08 03:43:31;;;;;;;20.13;10.03;;;4.30;99.90;;;;;;4956663;28;20175;-87
2022/01/08 03:45:57;;;;;;;17.50;8.80;;;4.30;99.90;;;;;;4957258;28;20167;-87
2022/01/08 03:48:29;;;;;;;16.43;9.57;;;4.30;99.90;;;;;;4956520;28;20561;-86
2022/01/08 03:50:55;;;;;;;18.23;9.17;;;4.10;99.90;;;;;;4956865;28;20190;-87
2022/01/08 03:53:22;;;;;;;16.80;9.63;;;4.10;99.90;;;;;;4956637;28;20185;-87
2022/01/08 03:55:48;;;;;;;19.13;10.23;;;4.10;99.90;;;;;;4959368;28;20175;-86
2022/01/08 03:58:13;;;;;;;20.90;9.80;;;4.10;99.90;;;;;;4959952;28;20633;-87
2022/01/08 04:00:39;;;;;;;16.50;10.50;;;4.10;99.90;;;;;;4960109;28;20213;-87
2022/01/08 04:03:05;;;;;;;18.93;10.77;;;4.00;99.90;;;;;;4959975;28;20177;-87
2022/01/08 04:05:30;;;;;;;16.20;10.17;;;4.00;99.90;;;;;;4959676;28;20580;-87
2022/01/08 04:07:57;;;;;;;16.83;9.93;;;4.20;99.90;;;;;;4960130;28;20167;-87
2022/01/08 04:10:22;;;;;;;18.97;10.37;;;4.20;99.90;;;;;;4959914;28;20202;-86
2022/01/08 04:12:53;;;;;;;18.53;9.30;;;4.10;99.90;;;;;;4959781;28;20175;-87
2022/01/08 04:15:42;;;;;;;19.27;9.80;;;4.10;99.90;;;;;;4960018;28;20225;-87
2022/01/08 04:18:06;;;;;;;16.20;9.97;;;4.10;99.90;;;;;;4976558;28;20239;-87
2022/01/08 04:20:35;;;;;;;22.80;11.40;;;4.10;99.90;;;;;;4959403;28;20182;-87
2022/01/08 04:23:02;;;;;;;28.83;14.47;;;4.20;99.90;;;;;;4959706;28;20194;-86
2022/01/08 04:25:27;;;;;;;18.37;12.60;;;4.20;99.90;;;;;;4959437;28;20178;-87
2022/01/08 04:27:53;;;;;;;15.73;9.67;;;4.10;99.90;;;;;;4959601;28;20225;-87
2022/01/08 04:30:18;;;;;;;23.40;13.73;;;4.00;99.90;;;;;;4959643;28;20229;-87
2022/01/08 04:32:44;;;;;;;20.63;10.60;;;4.00;99.90;;;;;;4959509;28;20188;-86
2022/01/08 04:35:10;;;;;;;22.60;11.97;;;4.10;99.90;;;;;;4959546;28;20178;-86
2022/01/08 04:37:36;;;;;;;24.27;11.80;;;4.10;99.90;;;;;;4959298;28;20170;-87
2022/01/08 04:40:02;;;;;;;24.43;13.37;;;4.00;99.90;;;;;;4959417;28;20178;-87
2022/01/08 04:42:28;;;;;;;26.60;12.93;;;4.00;99.90;;;;;;4959290;28;20698;-87
2022/01/08 04:44:54;;;;;;;21.50;13.80;;;4.00;99.90;;;;;;4959175;28;20177;-86
2022/01/08 04:47:20;;;;;;;21.20;13.63;;;3.90;99.90;;;;;;4958910;28;20178;-87
2022/01/08 04:49:46;;;;;;;28.80;13.17;;;3.80;99.90;;;;;;4959317;28;20735;-87
2022/01/08 04:52:12;;;;;;;20.90;12.20;;;3.90;99.90;;;;;;4959222;28;20254;-87
2022/01/08 04:54:37;;;;;;;29.17;16.40;;;3.90;99.90;;;;;;4959307;28;20175;-86
2022/01/08 04:57:03;;;;;;;25.17;13.03;;;3.90;99.90;;;;;;4959153;28;20167;-87
2022/01/08 04:59:28;;;;;;;30.73;15.60;;;3.80;99.90;;;;;;4958553;28;20666;-86
2022/01/08 05:01:54;;;;;;;25.30;12.30;;;3.90;99.90;;;;;;4959036;28;20264;-87
2022/01/08 05:04:21;;;;;;;30.53;16.97;;;4.00;99.90;;;;;;4959306;28;20670;-87
2022/01/08 05:06:46;;;;;;;25.87;14.43;;;4.00;99.90;;;;;;4958552;28;20159;-87
2022/01/08 05:09:12;;;;;;;33.43;17.73;;;4.00;99.90;;;;;;4958795;28;20257;-87
2022/01/08 05:11:37;;;;;;;25.97;16.10;;;3.90;99.90;;;;;;4958881;28;20202;-87
2022/01/08 05:14:04;;;;;;;29.27;14.50;;;3.90;99.90;;;;;;4959217;28;20194;-87
2022/01/08 05:16:30;;;;;;;31.43;15.07;;;3.90;99.90;;;;;;4958296;28;20204;-87
2022/01/08 05:18:56;;;;;;;24.33;14.10;;;3.90;99.90;;;;;;4958787;28;20181;-87
2022/01/08 05:21:27;;;;;;;30.10;15.80;;;3.90;99.90;;;;;;4958519;28;20181;-87
2022/01/08 05:23:54;;;;;;;29.13;15.47;;;4.00;99.90;;;;;;4958348;28;20177;-87
2022/01/08 05:26:21;;;;;;;46.67;21.10;;;4.00;99.90;;;;;;4958486;28;20770;-87
2022/01/08 05:28:46;;;;;;;25.20;13.23;;;4.10;99.90;;;;;;4958304;28;20202;-87
2022/01/08 05:31:18;;;;;;;22.60;11.87;;;4.20;99.90;;;;;;4958144;28;20174;-87
2022/01/08 05:33:44;;;;;;;26.50;13.10;;;4.20;99.90;;;;;;4958919;28;20170;-87
2022/01/08 05:36:10;;;;;;;20.30;12.93;;;4.10;99.90;;;;;;4958494;28;20170;-87
2022/01/08 05:38:35;;;;;;;23.80;13.30;;;4.10;99.90;;;;;;4958291;28;20175;-87
2022/01/08 05:41:02;;;;;;;27.07;13.70;;;4.10;99.90;;;;;;4958303;28;20185;-87
2022/01/08 05:43:27;;;;;;;24.60;13.67;;;4.00;99.90;;;;;;4958632;28;20198;-87
2022/01/08 05:45:53;;;;;;;31.93;14.50;;;4.00;99.90;;;;;;4958090;28;20190;-87
2022/01/08 05:48:19;;;;;;;30.50;12.83;;;4.00;99.90;;;;;;4957951;28;20265;-87
2022/01/08 05:50:44;;;;;;;26.27;13.10;;;4.00;99.90;;;;;;4958000;28;20682;-87
2022/01/08 05:53:10;;;;;;;30.20;13.40;;;4.00;99.90;;;;;;4958396;28;20265;-87
2022/01/08 05:55:36;;;;;;;29.50;14.50;;;4.00;99.90;;;;;;4958086;28;20182;-87
2022/01/08 05:58:02;;;;;;;25.73;14.43;;;4.00;99.90;;;;;;4958281;28;20194;-87
2022/01/08 06:00:27;;;;;;;24.50;12.47;;;4.00;99.90;;;;;;4957537;28;20643;-86
2022/01/08 06:02:53;;;;;;;27.23;13.90;;;3.90;99.90;;;;;;4958094;28;20174;-87
2022/01/08 06:05:19;;;;;;;25.73;13.07;;;3.90;99.90;;;;;;4957856;28;20178;-87
2022/01/08 06:07:44;;;;;;;25.47;12.90;;;3.90;99.90;;;;;;4957961;28;20530;-87
2022/01/08 06:10:10;;;;;;;26.67;13.60;;;4.00;99.90;;;;;;4957844;28;20214;-87
2022/01/08 06:12:36;;;;;;;23.13;13.07;;;4.00;99.90;;;;;;4957733;28;20520;-86
2022/01/08 06:15:02;;;;;;;28.63;13.20;;;3.90;99.90;;;;;;4957493;28;20198;-87
2022/01/08 06:17:27;;;;;;;28.70;12.70;;;4.00;99.90;;;;;;4957506;28;20240;-87
2022/01/08 06:19:53;;;;;;;26.37;12.80;;;4.10;99.90;;;;;;4957602;28;20170;-87
2022/01/08 06:22:18;;;;;;;29.13;14.00;;;4.10;99.90;;;;;;4957608;28;20274;-87
2022/01/08 06:24:44;;;;;;;30.70;14.00;;;4.10;99.90;;;;;;4957743;28;20261;-87
2022/01/08 06:27:10;;;;;;;25.03;12.63;;;4.10;99.90;;;;;;4957835;28;20288;-87
2022/01/08 06:29:36;;;;;;;27.60;13.00;;;4.00;99.90;;;;;;4957291;28;20218;-86
2022/01/08 06:32:02;;;;;;;27.93;13.20;;;3.90;99.90;;;;;;4957512;28;20174;-87
2022/01/08 06:34:28;;;;;;;32.10;14.60;;;3.90;99.90;;;;;;4957769;28;20166;-87
2022/01/08 06:36:54;;;;;;;24.83;12.57;;;3.90;99.90;;;;;;4959195;28;20189;-87
2022/01/08 06:39:20;;;;;;;24.93;13.23;;;3.80;99.90;;;;;;4964636;28;20229;-87
2022/01/08 06:41:45;;;;;;;27.50;13.73;;;3.70;99.90;;;;;;4962536;28;20171;-86
2022/01/08 06:44:13;;;;;;;29.43;13.07;;;3.70;99.90;;;;;;4962345;28;20171;-87
2022/01/08 06:46:41;;;;;;;29.27;11.90;;;3.80;99.90;;;;;;4961999;28;20200;-88
2022/01/08 06:49:09;;;;;;;28.57;12.33;;;4.00;99.90;;;;;;4966960;28;20206;-86
2022/01/08 06:51:36;;;;;;;26.40;11.93;;;4.00;99.90;;;;;;4972181;28;20174;-87
2022/01/08 06:54:01;;;;;;;20.97;11.00;;;4.00;99.90;;;;;;4965312;28;20186;-86
2022/01/08 06:56:27;;;;;;;29.03;12.83;;;3.90;99.90;;;;;;4971557;28;20170;-86
2022/01/08 06:58:53;;;;;;;22.37;11.33;;;3.90;99.90;;;;;;4971234;28;20257;-89
2022/01/08 07:01:21;;;;;;;23.83;10.63;;;3.80;99.90;;;;;;4977107;28;20193;-86
2022/01/08 07:03:50;;;;;;;26.77;11.67;;;3.80;99.90;;;;;;4977228;28;20193;-89
2022/01/08 07:06:18;;;;;;;31.53;11.70;;;3.90;99.90;;;;;;4977146;28;20203;-86
2022/01/08 07:08:47;;;;;;;24.57;11.00;;;3.90;99.90;;;;;;4977231;28;20197;-87
2022/01/08 07:11:13;;;;;;;25.70;10.77;;;4.00;99.90;;;;;;4977251;28;20210;-88
2022/01/08 07:13:43;;;;;;;19.20;10.03;;;3.90;99.90;;;;;;4976821;28;20554;-89
2022/01/08 07:16:11;;;;;;;23.00;10.53;;;4.00;99.90;;;;;;4977130;28;20188;-88
2022/01/08 07:18:36;;;;;;;24.13;10.90;;;3.90;99.90;;;;;;4976971;28;20170;-88
2022/01/08 07:21:03;;;;;;;17.97;9.63;;;3.90;99.90;;;;;;4976131;28;20181;-88
2022/01/08 07:23:35;;;;;;;23.00;9.70;;;4.00;99.90;;;;;;4976460;28;20185;-88
2022/01/08 07:26:01;;;;;;;18.03;9.83;;;4.00;99.90;;;;;;4970981;28;20210;-88
2022/01/08 07:28:26;;;;;;;21.43;8.90;;;4.00;99.90;;;;;;4975447;28;20204;-88
2022/01/08 07:30:52;;;;;;;18.63;9.30;;;4.00;99.90;;;;;;4979439;28;20185;-88
2022/01/08 07:33:21;;;;;;;17.63;9.17;;;4.00;99.90;;;;;;4979878;28;20173;-86
2022/01/08 07:35:46;;;;;;;19.20;8.70;;;4.00;99.90;;;;;;4980753;28;20174;-89
2022/01/08 07:38:15;;;;;;;19.17;9.27;;;4.20;99.90;;;;;;4980479;28;20745;-86
2022/01/08 07:40:42;;;;;;;18.00;8.37;;;4.20;99.90;;;;;;4980254;28;20173;-86
2022/01/08 07:43:08;;;;;;;13.27;7.07;;;4.30;99.90;;;;;;4980517;28;20272;-86
2022/01/08 07:45:37;;;;;;;17.10;8.37;;;4.30;99.90;;;;;;4980331;28;20209;-86
2022/01/08 07:48:04;;;;;;;16.93;7.53;;;4.30;99.90;;;;;;4980096;28;20564;-88
2022/01/08 07:50:32;;;;;;;22.43;8.33;;;4.30;99.90;;;;;;4980463;28;20210;-86
2022/01/08 07:53:01;;;;;;;18.17;7.43;;;4.30;99.90;;;;;;4979726;28;20641;-88
2022/01/08 07:55:27;;;;;;;15.63;7.37;;;4.30;99.90;;;;;;4980371;28;20162;-89
2022/01/08 07:57:53;;;;;;;11.80;6.93;;;4.30;99.90;;;;;;4979819;28;20232;-89
2022/01/08 08:00:20;;;;;;;15.80;6.87;;;4.30;99.90;;;;;;4979845;28;20197;-87
2022/01/08 08:02:46;;;;;;;13.70;5.63;;;4.30;99.90;;;;;;4979124;28;20232;-87
2022/01/08 08:05:12;;;;;;;15.00;6.43;;;4.30;99.90;;;;;;4979135;28;20173;-87
2022/01/08 08:07:38;;;;;;;13.90;6.27;;;4.30;99.90;;;;;;4979087;28;20166;-87
2022/01/08 08:10:10;;;;;;;14.90;6.23;;;4.40;99.90;;;;;;4978583;28;20205;-87
2022/01/08 08:12:37;;;;;;;13.57;7.03;;;4.40;99.90;;;;;;4978463;28;20232;-86
2022/01/08 08:15:05;;;;;;;13.23;5.17;;;4.40;99.90;;;;;;4978233;28;20242;-85
2022/01/08 08:17:30;;;;;;;7.30;4.80;;;4.40;99.90;;;;;;4978518;28;20536;-85
2022/01/08 08:19:56;;;;;;;13.23;5.07;;;4.30;99.90;;;;;;4978829;28;20170;-86
2022/01/08 08:22:21;;;;;;;10.33;5.23;;;4.30;99.90;;;;;;4978930;28;20196;-84
2022/01/08 08:24:47;;;;;;;10.93;4.97;;;4.40;99.90;;;;;;4978920;28;20170;-87
2022/01/08 08:27:13;;;;;;;10.20;4.67;;;4.50;99.90;;;;;;4978840;28;20166;-89
2022/01/08 08:29:40;;;;;;;10.50;4.57;;;4.50;99.90;;;;;;4978787;28;20753;-88
2022/01/08 08:32:06;;;;;;;11.90;4.77;;;4.50;99.90;;;;;;4978946;28;20173;-89
2022/01/08 08:34:32;;;;;;;15.30;5.20;;;4.60;99.90;;;;;;4978763;28;20165;-88
2022/01/08 08:36:58;;;;;;;13.53;4.83;;;4.60;99.90;;;;;;4977822;28;20170;-88
2022/01/08 08:39:25;;;;;;;17.80;5.60;;;4.60;99.90;;;;;;4978119;28;20233;-88
2022/01/08 08:41:51;;;;;;;13.97;5.60;;;4.70;99.90;;;;;;4976962;28;20236;-88
2022/01/08 08:44:17;;;;;;;11.00;5.43;;;4.60;99.90;;;;;;4975677;28;20174;-88
2022/01/08 08:46:43;;;;;;;12.97;5.73;;;4.70;99.90;;;;;;4978162;28;20182;-89
2022/01/08 08:49:08;;;;;;;15.53;5.80;;;4.70;99.90;;;;;;4978598;28;20287;-87
2022/01/08 08:51:35;;;;;;;10.13;4.80;;;4.70;99.90;;;;;;4977935;28;20170;-87
2022/01/08 08:54:00;;;;;;;14.03;5.53;;;4.60;99.90;;;;;;4978079;28;20178;-87
2022/01/08 08:56:27;;;;;;;10.73;4.50;;;4.70;99.90;;;;;;4977870;28;20174;-87
2022/01/08 08:58:53;;;;;;;14.20;6.00;;;4.90;99.90;;;;;;4976601;28;20669;-87
2022/01/08 09:01:20;;;;;;;12.47;4.53;;;4.90;99.90;;;;;;4975986;28;20201;-85
2022/01/08 09:03:45;;;;;;;12.73;4.87;;;5.00;99.90;;;;;;4977143;28;20542;-94
2022/01/08 09:06:11;;;;;;;8.97;4.40;;;5.10;99.90;;;;;;4977184;28;20181;-89
2022/01/08 09:08:37;;;;;;;10.13;4.83;;;5.10;99.90;;;;;;4977879;28;20670;-87
2022/01/08 09:11:02;;;;;;;11.57;3.97;;;5.10;99.90;;;;;;4978108;28;20182;-87
2022/01/08 09:13:28;;;;;;;23.93;4.90;;;5.00;99.90;;;;;;4976908;28;20178;-87
2022/01/08 09:15:54;;;;;;;10.40;4.13;;;5.00;99.90;;;;;;4977653;28;20174;-89
2022/01/08 09:18:19;;;;;;;9.13;4.10;;;4.90;99.90;;;;;;4977781;28;20193;-87
2022/01/08 09:20:45;;;;;;;8.80;4.03;;;4.90;99.90;;;;;;4977653;28;20305;-87
2022/01/08 09:23:11;;;;;;;11.10;4.90;;;4.80;99.90;;;;;;4977193;28;20181;-89
2022/01/08 09:25:37;;;;;;;10.33;4.50;;;4.80;99.90;;;;;;4977557;28;20173;-89
2022/01/08 09:28:05;;;;;;;9.93;4.80;;;4.80;99.90;;;;;;4978253;28;20185;-89
2022/01/08 09:30:31;;;;;;;11.50;4.77;;;4.80;99.90;;;;;;4977762;28;20202;-88
2022/01/08 09:32:56;;;;;;;10.40;4.63;;;4.80;99.90;;;;;;4977596;28;20469;-89
2022/01/08 09:35:23;;;;;;;9.17;3.83;;;4.90;99.90;;;;;;4977490;28;20170;-88
2022/01/08 09:37:50;;;;;;;11.27;4.37;;;5.00;99.90;;;;;;4977303;28;20280;-88
2022/01/08 09:40:17;;;;;;;12.10;4.00;;;5.00;99.90;;;;;;4977596;28;20658;-88
2022/01/08 09:42:44;;;;;;;8.60;4.30;;;5.10;99.90;;;;;;4977523;28;20713;-88
2022/01/08 09:45:11;;;;;;;8.37;4.10;;;5.20;99.90;;;;;;4977493;28;20205;-88
2022/01/08 09:47:37;;;;;;;10.60;3.57;;;5.20;99.90;;;;;;4977655;28;20165;-89
2022/01/08 09:50:04;;;;;;;9.90;3.73;;;5.10;99.90;;;;;;4977432;28;20209;-89
2022/01/08 09:52:31;;;;;;;8.50;3.43;;;5.10;99.90;;;;;;4977027;28;20169;-88
2022/01/08 09:54:57;;;;;;;6.87;3.20;;;5.20;99.90;;;;;;4977472;28;20260;-88
2022/01/08 09:57:22;;;;;;;9.67;3.10;;;5.20;99.90;;;;;;4977162;28;20257;-89
2022/01/08 09:59:48;;;;;;;7.47;3.37;;;5.10;99.90;;;;;;4977190;28;20193;-88
2022/01/08 10:02:19;;;;;;;7.63;3.13;;;5.00;99.90;;;;;;4976981;28;20174;-88
2022/01/08 10:04:44;;;;;;;7.33;3.13;;;5.10;99.90;;;;;;4977071;28;20170;-88
2022/01/08 10:07:19;;;;;;;6.17;3.00;;;5.20;99.90;;;;;;4976837;28;20178;-88
2022/01/08 10:10:15;;;;;;;4.77;2.40;;;5.10;99.90;;;;;;4977069;28;20212;-89
2022/01/08 10:12:50;;;;;;;6.47;3.37;;;5.10;99.90;;;;;;4976786;28;20569;-88
2022/01/08 10:18:10;;;;;;;6.70;2.80;;;5.20;99.90;;;;;;4994433;28;20193;-88
2022/01/08 10:20:40;;;;;;;4.70;2.73;;;5.10;99.90;;;;;;4976870;28;20658;-88
2022/01/08 10:23:11;;;;;;;5.30;2.70;;;5.10;99.90;;;;;;4976731;28;20181;-88
2022/01/08 10:25:37;;;;;;;6.40;2.60;;;5.10;99.90;;;;;;4976949;28;20314;-88
2022/01/08 10:28:03;;;;;;;6.13;2.77;;;5.10;99.90;;;;;;4976730;28;20184;-88
2022/01/08 10:30:29;;;;;;;8.43;2.70;;;5.10;99.90;;;;;;4976672;28;20670;-89
2022/01/08 10:32:59;;;;;;;6.10;2.80;;;5.20;99.90;;;;;;4976647;28;20165;-89
2022/01/08 10:35:47;;;;;;;5.00;2.43;;;5.30;99.90;;;;;;4976703;28;20174;-88
2022/01/08 10:38:12;;;;;;;6.57;3.07;;;5.50;99.90;;;;;;4975622;28;20180;-88
2022/01/08 10:40:38;;;;;;;5.50;2.80;;;5.40;99.90;;;;;;4975948;28;20177;-88
2022/01/08 10:43:19;;;;;;;7.87;2.93;;;5.20;99.90;;;;;;4976660;28;20177;-88
2022/01/08 10:45:45;;;;;;;6.60;3.47;;;5.20;99.90;;;;;;4976816;28;20555;-88
2022/01/08 10:48:10;;;;;;;6.63;2.73;;;5.20;99.90;;;;;;4976897;28;20181;-88
2022/01/08 10:50:36;;;;;;;4.97;2.90;;;5.20;99.90;;;;;;4976307;28;20644;-88
2022/01/08 10:53:03;;;;;;;5.17;2.93;;;5.20;99.90;;;;;;4976569;28;20252;-88
2022/01/08 10:55:31;;;;;;;5.40;2.73;;;5.20;99.90;;;;;;4976677;28;20182;-88
2022/01/08 10:57:57;;;;;;;5.40;3.03;;;5.30;99.90;;;;;;4976498;28;20318;-89
2022/01/08 11:00:34;;;;;;;7.13;2.53;;;5.30;99.90;;;;;;4975832;28;20674;-92
2022/01/08 11:03:53;;;;;;;9.60;3.23;;;5.30;99.90;;;;;;4976773;28;20173;-93
2022/01/08 11:07:14;;;;;;;;;;;;;;;;;;;;;
2022/01/08 11:09:42;;;;;;;5.70;2.80;;;5.40;99.90;;;;;;4975934;28;20221;-91
2022/01/08 11:12:35;;;;;;;5.63;3.40;;;5.30;99.90;;;;;;4969016;28;20178;-92
2022/01/08 11:19:30;;;;;;;7.17;4.23;;;5.20;99.90;;;;;;4941773;29;20186;-92
2022/01/08 11:58:33;;;;;;;;;;;;;;;;;;;;;
2022/01/08 12:05:40;;;;;;;5.97;3.17;;;5.00;99.90;;;;;;4650300;30;20189;-93
2022/01/08 12:12:42;;;;;;;;;;;;;;;;;;;;;
2022/01/08 12:16:18;;;;;;;;;;;;;;;;;;;;;
2022/01/08 12:23:49;;;;;;;;;;;;;;;;;;;;;
2022/01/08 12:27:38;;;;;;;;;;;;;;;;;;;;;
2022/01/08 12:30:35;;;;;;;;;;;;;;;;;;;;;
2022/01/08 12:33:27;;;;;;;5.97;3.47;;;5.40;99.90;;;;;;4685744;30;20210;-94
2022/01/08 12:39:51;;;;;;;8.70;3.63;;;5.30;99.90;;;;;;4942347;28;20192;-93
2022/01/08 12:45:47;;;;;;;;;;;;;;;;;;;;;
2022/01/08 12:48:49;;;;;;;7.23;3.70;;;5.50;99.90;;;;;;4997117;28;20169;-92
2022/01/08 12:51:17;;;;;;;6.13;3.50;;;5.50;99.90;;;;;;4977665;28;20189;-92
2022/01/08 12:54:18;;;;;;;5.70;3.50;;;5.50;99.90;;;;;;4978624;28;20165;-94
2022/01/08 12:56:50;;;;;;;4.80;3.57;;;5.40;99.90;;;;;;4965524;28;20252;-94
2022/01/08 12:59:54;;;;;;;;;;;;;;;;;;;;;
2022/01/08 13:06:18;;;;;;;7.07;3.80;;;5.60;99.90;;;;;;5002956;28;20185;-93
2022/01/08 13:09:14;;;;;;;5.77;3.20;;;5.60;99.90;;;;;;4986927;28;20190;-94
2022/01/08 13:11:52;;;;;;;5.63;3.37;;;5.60;99.90;;;;;;4986795;28;20193;-93
2022/01/08 13:14:41;;;;;;;4.67;3.40;;;5.70;99.90;;;;;;4986017;28;20190;-94
2022/01/08 16:20:18;;;;;;;4.60;2.70;;;7.40;99.90;;;;;;5304196;23;20279;-89
2022/01/08 16:22:44;;;;;;;4.53;3.07;;;7.40;99.90;;;;;;4958115;28;20210;-90
2022/01/08 16:25:10;;;;;;;3.87;2.70;;;7.40;99.90;;;;;;4939994;28;20226;-87
2022/01/08 16:27:36;;;;;;;3.70;2.70;;;7.40;99.90;;;;;;4974531;28;20186;-89
2022/01/08 16:30:03;;;;;;;8.73;3.60;;;7.40;99.90;;;;;;4971073;28;20223;-87
2022/01/08 16:32:29;;;;;;;7.60;3.60;;;7.40;99.90;;;;;;4965520;28;20295;-89
2022/01/08 16:34:54;;;;;;;8.50;3.00;;;7.30;99.90;;;;;;4941151;28;20694;-88
2022/01/08 16:37:20;;;;;;;7.30;3.13;;;7.40;99.90;;;;;;4973487;28;20213;-89
2022/01/08 16:39:46;;;;;;;6.57;2.80;;;7.40;99.90;;;;;;4992870;28;20220;-88
2022/01/08 16:42:12;;;;;;;9.57;3.27;;;7.40;99.90;;;;;;4953811;28;20210;-90
2022/01/08 16:44:38;;;;;;;3.90;2.20;;;7.40;99.90;;;;;;4939853;28;20217;-89
2022/01/08 16:47:05;;;;;;;4.93;2.60;;;7.50;99.90;;;;;;4963489;28;20814;-88
2022/01/08 16:49:31;;;;;;;12.67;5.00;;;7.50;99.90;;;;;;4963737;28;20252;-90
2022/01/08 16:51:57;;;;;;;8.53;5.07;;;7.40;99.90;;;;;;4945162;28;20215;-90
2022/01/08 16:54:22;;;;;;;15.57;7.30;;;7.50;99.90;;;;;;4965748;28;20179;-90
2022/01/08 16:56:48;;;;;;;9.97;4.20;;;7.60;99.90;;;;;;4958349;28;20207;-89
2022/01/08 16:59:14;;;;;;;6.80;3.27;;;7.60;99.90;;;;;;4953160;28;20206;-90
2022/01/08 17:01:40;;;;;;;13.27;5.80;;;7.60;99.90;;;;;;4939154;28;20183;-84
2022/01/08 17:04:06;;;;;;;4.80;2.50;;;7.60;99.90;;;;;;4939153;28;20175;-88
2022/01/08 17:06:32;;;;;;;6.60;2.97;;;7.50;99.90;;;;;;4952439;28;20178;-89
2022/01/08 17:08:57;;;;;;;9.70;5.47;;;7.60;99.90;;;;;;4957725;28;20203;-89
2022/01/08 17:11:23;;;;;;;9.00;3.10;;;7.50;99.90;;;;;;4939264;28;20184;-88
2022/01/08 17:13:48;;;;;;;4.47;2.17;;;7.60;99.90;;;;;;4960780;28;20277;-88
2022/01/08 17:16:14;;;;;;;4.50;2.03;;;7.50;99.90;;;;;;4974403;28;20292;-88
2022/01/08 17:18:40;;;;;;;6.87;2.43;;;7.50;99.90;;;;;;4976468;28;20195;-88
2022/01/08 17:21:06;;;;;;;4.93;2.03;;;7.50;99.90;;;;;;4993491;28;20190;-88
2022/01/08 17:23:32;;;;;;;12.60;2.93;;;7.50;99.90;;;;;;4993445;28;20245;-89
2022/01/08 17:25:59;;;;;;;4.13;2.30;;;7.40;99.90;;;;;;4993119;28;20189;-88
2022/01/08 17:28:26;;;;;;;6.73;2.80;;;7.40;99.90;;;;;;4993451;28;20554;-88
2022/01/08 17:30:52;;;;;;;13.03;2.20;;;7.40;99.90;;;;;;4977822;28;20260;-87
2022/01/08 17:33:18;;;;;;;3.53;2.20;;;7.50;99.90;;;;;;4951746;28;20507;-88